Strona główna
METAR-TAF:

METAR-TAF

Lotnisko :

Port lotniczy Akaba

Akaba, Jordania

Szerokość geograficzna: 29-38N, Długość geograficzna: 035-01E, wysokość: 53 m

Aktualna obserwacja pogody

Raport powstał 2 godziny i 53 minut temu, godzina 00:00 UTC
Wiatr 15 kt od północ
Temperatura 20°C
Wilgotność 43%
Ciśnienie 1015 hPa
Widzialność 10 km lub więcej
Brak chmur poniżej 1500 m i brak chmur cumulonimbus

METAR: OJAQ 040000Z AUTO 35015KT CAVOK 20/07 Q1015 NOSIG

czas: 05:53 (02:53 UTC)

Prognoza

Raport powstał 4 godziny i 3 minut temu, godzina 22:50 UTC
Prognoza ważna od 04 godzina 00 UTC do 05 godzina 06 UTC
Wiatr 12 kt od północ
Widzialność 10 km lub więcej
Brak chmur poniżej 1500 m i brak chmur cumulonimbus
Stopniowe zmiany
od 04 godzina 10 UTC do 04 godzina 12 UTC
Wiatr 10 kt od południe
Widzialność: 7000 m
Prawdopodobieństwo 30% :
Przejściowo
od 04 godzina 12 UTC do 04 godzina 24 UTC
Widzialność: 5000 m
zmętnienie

TAF: OJAQ 032250Z 0400/0506 35012KT CAVOK BECMG 0410/0412 19010KT 7000 NSC PROB30 TEMPO 0412/0424 5000 HZ

Obserwacja i prognoza pogody dla ponad 4000 lotnisk (raport METAR i TAF).

Dostępne stacje oznaczono żółtymi i czerwonymi punktami na mapie.

Najedź kursorem aby zobaczyć nazwę stacji.

Kliknij aby zobaczyć obserwacje i prognozy pogody.

Aby zmienić mapę: kliknij na zielony przycisk z czarnym krzyżykiem, aby powiększyć; na zielony przycisk z myślnikiem, aby pomniejszyć; na zielone strzałki, aby przejść do map sąsiednich.


METAR-TAF: